CCA280 ENSB-ENTC
Flight info
| Callsign | CCA280 |
|---|---|
| Flight time | 1h 18m |
| Altitude | 38000 |
| Route | SUSES DCT PITOL P600 VAVAD/N0489F400 P600 KOMUX DCT LOMVI |
| Aircraft | A359/H-SDE2E3GHIJ3J4J5LM1ORWXY/LB1D1 |
Departure
| Time | 2026-04-27 22:54 |
|---|---|
| Airport | Svalbard Airport, Longyear (ENSB) |
Arrival
| Time | 2026-04-28 00:13 |
|---|---|
| Airport | Tromsø Airport (ENTC) |
| Time | Latitude | Longitude | Altitude | Speed | Heading |
|---|---|---|---|---|---|
| 2026-04-27 22:45 | 78.24616 | 15.49441 | 96 ft | 0 kts | 105° |
| 2026-04-27 22:50 | 78.24613 | 15.49486 | 98 ft | 4 kts | 105° |
| 2026-04-27 22:50 | 78.24601 | 15.49702 | 97 ft | 9 kts | 105° |
| 2026-04-27 22:50 | 78.24579 | 15.49887 | 98 ft | 4 kts | 151° |
| 2026-04-27 22:51 | 78.24543 | 15.49926 | 98 ft | 7 kts | 181° |
| 2026-04-27 22:51 | 78.24470 | 15.49847 | 97 ft | 12 kts | 184° |
| 2026-04-27 22:51 | 78.24417 | 15.50047 | 97 ft | 9 kts | 114° |
| 2026-04-27 22:51 | 78.24392 | 15.50370 | 96 ft | 11 kts | 106° |
| 2026-04-27 22:52 | 78.24377 | 15.50752 | 94 ft | 13 kts | 102° |
| 2026-04-27 22:52 | 78.24363 | 15.51193 | 98 ft | 13 kts | 85° |
| 2026-04-27 22:52 | 78.24367 | 15.51536 | 95 ft | 0 kts | 104° |
| 2026-04-27 22:52 | 78.24355 | 15.51581 | 94 ft | 6 kts | 150° |
| 2026-04-27 22:53 | 78.24337 | 15.51546 | 97 ft | 5 kts | 229° |
| 2026-04-27 22:53 | 78.24342 | 15.51403 | 98 ft | 5 kts | 295° |
| 2026-04-27 22:53 | 78.24347 | 15.51332 | 98 ft | 0 kts | 284° |
| 2026-04-27 22:53 | 78.24348 | 15.51320 | 98 ft | 0 kts | 285° |
| 2026-04-27 22:54 | 78.24372 | 15.50896 | 96 ft | 48 kts | 286° |
| 2026-04-27 22:54 | 78.24541 | 15.47872 | 99 ft | 134 kts | 285° |
| 2026-04-27 22:54 | 78.24900 | 15.41372 | 955 ft | 154 kts | 285° |
| 2026-04-27 22:55 | 78.25186 | 15.36060 | 1742 ft | 171 kts | 284° |
| 2026-04-27 22:55 | 78.25404 | 15.32054 | 2003 ft | 188 kts | 285° |
| 2026-04-27 22:55 | 78.25778 | 15.25436 | 2342 ft | 215 kts | 285° |
| 2026-04-27 22:55 | 78.25911 | 15.17936 | 2865 ft | 231 kts | 258° |
| 2026-04-27 22:56 | 78.25366 | 15.10399 | 3677 ft | 237 kts | 247° |
| 2026-04-27 22:56 | 78.24684 | 15.02910 | 4482 ft | 243 kts | 247° |
| 2026-04-27 22:56 | 78.23982 | 14.95243 | 5332 ft | 248 kts | 248° |
| 2026-04-27 22:56 | 78.23277 | 14.87461 | 6184 ft | 251 kts | 248° |
| 2026-04-27 22:57 | 78.22566 | 14.79583 | 7051 ft | 254 kts | 248° |
| 2026-04-27 22:57 | 78.21858 | 14.71728 | 7957 ft | 256 kts | 248° |
| 2026-04-27 22:57 | 78.21133 | 14.63716 | 8835 ft | 259 kts | 248° |
| 2026-04-27 22:57 | 78.20337 | 14.55737 | 9705 ft | 264 kts | 242° |
| 2026-04-27 22:58 | 78.19121 | 14.48899 | 10538 ft | 274 kts | 222° |
| 2026-04-27 22:58 | 78.17356 | 14.44494 | 10967 ft | 301 kts | 198° |
| 2026-04-27 22:58 | 78.15182 | 14.44299 | 11285 ft | 329 kts | 170° |
| 2026-04-27 22:58 | 78.12966 | 14.48225 | 11783 ft | 346 kts | 158° |
| 2026-04-27 22:59 | 78.10744 | 14.53105 | 12458 ft | 354 kts | 158° |
| 2026-04-27 22:59 | 78.08466 | 14.58047 | 13207 ft | 361 kts | 158° |
| 2026-04-27 22:59 | 78.06180 | 14.62896 | 13932 ft | 367 kts | 158° |
| 2026-04-27 22:59 | 78.03824 | 14.67818 | 14658 ft | 371 kts | 158° |
| 2026-04-27 23:00 | 77.98985 | 14.77791 | 15836 ft | 384 kts | 158° |
| 2026-04-27 23:00 | 77.96494 | 14.82872 | 16420 ft | 392 kts | 159° |
| 2026-04-27 23:00 | 77.93969 | 14.87996 | 17029 ft | 398 kts | 159° |
| 2026-04-27 23:01 | 77.91399 | 14.93182 | 17672 ft | 404 kts | 159° |
| 2026-04-27 23:01 | 77.88793 | 14.98416 | 18282 ft | 410 kts | 159° |
| 2026-04-27 23:01 | 77.86134 | 15.03728 | 18859 ft | 416 kts | 159° |
| 2026-04-27 23:01 | 77.83446 | 15.08553 | 19381 ft | 420 kts | 165° |
| 2026-04-27 23:02 | 77.80575 | 15.11181 | 19960 ft | 421 kts | 179° |
| 2026-04-27 23:02 | 77.77636 | 15.11687 | 20545 ft | 424 kts | 184° |
| 2026-04-27 23:02 | 77.74675 | 15.11346 | 21126 ft | 427 kts | 187° |
| 2026-04-27 23:02 | 77.71685 | 15.10625 | 21709 ft | 432 kts | 188° |
| 2026-04-27 23:03 | 77.68665 | 15.09808 | 22287 ft | 437 kts | 188° |
| 2026-04-27 23:03 | 77.65606 | 15.09030 | 22890 ft | 442 kts | 188° |
| 2026-04-27 23:03 | 77.62515 | 15.08336 | 23459 ft | 447 kts | 187° |
| 2026-04-27 23:03 | 77.59428 | 15.07729 | 23985 ft | 452 kts | 187° |
| 2026-04-27 23:04 | 77.56270 | 15.07165 | 24417 ft | 457 kts | 187° |
| 2026-04-27 23:04 | 77.53073 | 15.06631 | 24887 ft | 460 kts | 187° |
| 2026-04-27 23:04 | 77.49869 | 15.06119 | 25421 ft | 462 kts | 187° |
| 2026-04-27 23:04 | 77.46644 | 15.05599 | 25903 ft | 466 kts | 187° |
| 2026-04-27 23:05 | 77.43389 | 15.05068 | 26375 ft | 470 kts | 187° |
| 2026-04-27 23:05 | 77.40099 | 15.04530 | 26853 ft | 474 kts | 187° |
| 2026-04-27 23:05 | 77.36795 | 15.03990 | 27326 ft | 478 kts | 187° |
| 2026-04-27 23:05 | 77.33450 | 15.03447 | 27811 ft | 482 kts | 187° |
| 2026-04-27 23:06 | 77.30076 | 15.02901 | 28273 ft | 485 kts | 187° |
| 2026-04-27 23:06 | 77.26683 | 15.02360 | 28723 ft | 489 kts | 187° |
| 2026-04-27 23:06 | 77.23310 | 15.01823 | 29150 ft | 493 kts | 187° |
| 2026-04-27 23:06 | 77.19860 | 15.01273 | 29590 ft | 496 kts | 187° |
| 2026-04-27 23:07 | 77.16398 | 15.00723 | 29957 ft | 500 kts | 187° |
| 2026-04-27 23:07 | 77.12917 | 15.00173 | 30411 ft | 502 kts | 187° |
| 2026-04-27 23:07 | 77.09402 | 14.99623 | 30791 ft | 504 kts | 187° |
| 2026-04-27 23:07 | 77.05895 | 14.99082 | 31254 ft | 504 kts | 187° |
| 2026-04-27 23:08 | 77.02379 | 14.98544 | 31709 ft | 504 kts | 186° |
| 2026-04-27 23:08 | 76.98879 | 14.98009 | 32136 ft | 504 kts | 186° |
| 2026-04-27 23:08 | 76.95368 | 14.97473 | 32542 ft | 505 kts | 186° |
| 2026-04-27 23:08 | 76.91844 | 14.96934 | 32924 ft | 506 kts | 186° |
| 2026-04-27 23:09 | 76.88358 | 14.96404 | 33264 ft | 507 kts | 186° |
| 2026-04-27 23:09 | 76.84821 | 14.95868 | 33614 ft | 509 kts | 186° |
| 2026-04-27 23:09 | 76.81282 | 14.95335 | 33945 ft | 510 kts | 186° |
| 2026-04-27 23:09 | 76.77724 | 14.94802 | 34220 ft | 511 kts | 186° |
| 2026-04-27 23:10 | 76.74170 | 14.94274 | 34487 ft | 512 kts | 186° |
| 2026-04-27 23:10 | 76.70592 | 14.93744 | 34708 ft | 514 kts | 186° |
| 2026-04-27 23:10 | 76.67020 | 14.93219 | 34966 ft | 514 kts | 185° |
| 2026-04-27 23:10 | 76.63440 | 14.92698 | 35290 ft | 513 kts | 185° |
| 2026-04-27 23:11 | 76.59866 | 14.92181 | 35576 ft | 513 kts | 185° |
| 2026-04-27 23:11 | 76.56307 | 14.91668 | 35862 ft | 512 kts | 185° |
| 2026-04-27 23:11 | 76.52749 | 14.91157 | 36143 ft | 512 kts | 185° |
| 2026-04-27 23:11 | 76.49182 | 14.90645 | 36405 ft | 511 kts | 185° |
| 2026-04-27 23:12 | 76.45634 | 14.90139 | 36667 ft | 511 kts | 185° |
| 2026-04-27 23:12 | 76.42071 | 14.89633 | 36876 ft | 511 kts | 185° |
| 2026-04-27 23:12 | 76.38559 | 14.89135 | 37069 ft | 512 kts | 185° |
| 2026-04-27 23:12 | 76.34989 | 14.88763 | 37288 ft | 513 kts | 182° |
| 2026-04-27 23:13 | 76.31414 | 14.89771 | 37533 ft | 515 kts | 176° |
| 2026-04-27 23:13 | 76.27863 | 14.91641 | 37781 ft | 515 kts | 174° |
| 2026-04-27 23:13 | 76.24309 | 14.93814 | 38019 ft | 515 kts | 174° |
| 2026-04-27 23:13 | 76.20768 | 14.96110 | 38253 ft | 515 kts | 173° |
| 2026-04-27 23:14 | 76.13661 | 15.00746 | 38348 ft | 517 kts | 174° |
| 2026-04-27 23:14 | 76.06545 | 15.05249 | 38347 ft | 516 kts | 174° |
| 2026-04-27 23:15 | 75.99432 | 15.09628 | 38352 ft | 517 kts | 174° |
| 2026-04-27 23:15 | 75.92335 | 15.13931 | 38352 ft | 517 kts | 174° |
| 2026-04-27 23:16 | 75.85210 | 15.18210 | 38352 ft | 517 kts | 174° |
| 2026-04-27 23:16 | 75.78090 | 15.22448 | 38362 ft | 517 kts | 174° |
| 2026-04-27 23:17 | 75.70983 | 15.26637 | 38349 ft | 519 kts | 174° |
| 2026-04-27 23:17 | 75.63822 | 15.30816 | 38334 ft | 520 kts | 174° |
| 2026-04-27 23:18 | 75.56658 | 15.34957 | 38352 ft | 520 kts | 174° |
| 2026-04-27 23:18 | 75.49488 | 15.39062 | 38352 ft | 520 kts | 174° |
| 2026-04-27 23:19 | 75.42309 | 15.43131 | 38355 ft | 520 kts | 174° |
| 2026-04-27 23:19 | 75.35139 | 15.47155 | 38350 ft | 520 kts | 174° |
| 2026-04-27 23:20 | 75.28004 | 15.51122 | 38349 ft | 520 kts | 174° |
| 2026-04-27 23:20 | 75.20835 | 15.55068 | 38350 ft | 521 kts | 174° |
| 2026-04-27 23:21 | 75.13642 | 15.58990 | 38351 ft | 521 kts | 174° |
| 2026-04-27 23:21 | 75.06464 | 15.62867 | 38354 ft | 521 kts | 174° |
| 2026-04-27 23:22 | 74.99263 | 15.66720 | 38350 ft | 521 kts | 174° |
| 2026-04-27 23:22 | 74.92077 | 15.70528 | 38520 ft | 521 kts | 174° |
| 2026-04-27 23:23 | 74.88522 | 15.72400 | 38788 ft | 520 kts | 174° |
| 2026-04-27 23:23 | 74.85014 | 15.74238 | 38971 ft | 520 kts | 174° |
| 2026-04-27 23:23 | 74.81362 | 15.76142 | 39077 ft | 521 kts | 174° |
| 2026-04-27 23:23 | 74.77757 | 15.78012 | 39218 ft | 521 kts | 174° |
| 2026-04-27 23:24 | 74.74145 | 15.79879 | 39371 ft | 521 kts | 174° |
| 2026-04-27 23:24 | 74.70558 | 15.81724 | 39518 ft | 520 kts | 174° |
| 2026-04-27 23:24 | 74.66973 | 15.83559 | 39654 ft | 520 kts | 174° |
| 2026-04-27 23:24 | 74.63382 | 15.85389 | 39788 ft | 520 kts | 174° |
| 2026-04-27 23:25 | 74.56190 | 15.89026 | 39849 ft | 521 kts | 174° |
| 2026-04-27 23:25 | 74.49046 | 15.92608 | 39839 ft | 521 kts | 174° |
| 2026-04-27 23:26 | 74.41839 | 15.96189 | 39857 ft | 522 kts | 174° |
| 2026-04-27 23:26 | 74.34637 | 15.99734 | 39862 ft | 522 kts | 174° |
| 2026-04-27 23:27 | 74.27471 | 16.03231 | 39852 ft | 522 kts | 174° |
| 2026-04-27 23:27 | 74.20266 | 16.06715 | 39852 ft | 522 kts | 174° |
| 2026-04-27 23:28 | 74.13059 | 16.10168 | 39856 ft | 522 kts | 174° |
| 2026-04-27 23:28 | 74.05853 | 16.13591 | 39853 ft | 522 kts | 174° |
| 2026-04-27 23:29 | 73.98678 | 16.16968 | 39862 ft | 522 kts | 174° |
| 2026-04-27 23:29 | 73.91473 | 16.20328 | 39854 ft | 522 kts | 174° |
| 2026-04-27 23:30 | 73.84246 | 16.23671 | 39857 ft | 523 kts | 174° |
| 2026-04-27 23:30 | 73.77032 | 16.26979 | 39858 ft | 523 kts | 174° |
| 2026-04-27 23:31 | 73.69810 | 16.30262 | 39860 ft | 523 kts | 174° |
| 2026-04-27 23:31 | 73.62574 | 16.33522 | 39864 ft | 524 kts | 174° |
| 2026-04-27 23:32 | 73.55334 | 16.36756 | 39858 ft | 524 kts | 174° |
| 2026-04-27 23:32 | 73.48100 | 16.39960 | 39856 ft | 524 kts | 174° |
| 2026-04-27 23:33 | 73.40870 | 16.43134 | 39862 ft | 524 kts | 174° |
| 2026-04-27 23:33 | 73.33674 | 16.46267 | 39849 ft | 524 kts | 174° |
| 2026-04-27 23:34 | 73.26417 | 16.49399 | 39860 ft | 525 kts | 174° |
| 2026-04-27 23:34 | 73.19171 | 16.52500 | 39860 ft | 525 kts | 174° |
| 2026-04-27 23:35 | 73.11921 | 16.55578 | 39865 ft | 525 kts | 175° |
| 2026-04-27 23:35 | 73.04679 | 16.58624 | 39867 ft | 524 kts | 174° |
| 2026-04-27 23:36 | 72.97471 | 16.61633 | 39859 ft | 524 kts | 174° |
| 2026-04-27 23:36 | 72.90222 | 16.64634 | 39866 ft | 525 kts | 174° |
| 2026-04-27 23:37 | 72.82959 | 16.67615 | 39865 ft | 525 kts | 174° |
| 2026-04-27 23:37 | 72.75696 | 16.70572 | 39868 ft | 525 kts | 174° |
| 2026-04-27 23:38 | 72.68427 | 16.73507 | 39868 ft | 525 kts | 174° |
| 2026-04-27 23:38 | 72.61169 | 16.76414 | 39874 ft | 526 kts | 174° |
| 2026-04-27 23:39 | 72.53943 | 16.79285 | 39867 ft | 526 kts | 174° |
| 2026-04-27 23:39 | 72.46668 | 16.82151 | 39867 ft | 527 kts | 174° |
| 2026-04-27 23:40 | 72.39381 | 16.84999 | 39867 ft | 527 kts | 174° |
| 2026-04-27 23:40 | 72.32098 | 16.87824 | 39871 ft | 527 kts | 174° |
| 2026-04-27 23:41 | 72.24808 | 16.90628 | 39872 ft | 527 kts | 174° |
| 2026-04-27 23:41 | 72.17526 | 16.93405 | 39872 ft | 527 kts | 174° |
| 2026-04-27 23:42 | 72.11474 | 16.95697 | 39870 ft | 527 kts | 174° |
| 2026-04-27 23:42 | 72.03042 | 16.98869 | 39870 ft | 527 kts | 174° |
| 2026-04-27 23:43 | 71.97089 | 17.03321 | 39870 ft | 528 kts | 162° |
| 2026-04-27 23:43 | 71.90159 | 17.11119 | 39867 ft | 528 kts | 160° |
| 2026-04-27 23:44 | 71.83218 | 17.19179 | 39859 ft | 528 kts | 160° |
| 2026-04-27 23:44 | 71.76281 | 17.27113 | 39869 ft | 529 kts | 160° |
| 2026-04-27 23:45 | 71.69346 | 17.34918 | 39873 ft | 530 kts | 161° |
| 2026-04-27 23:45 | 71.62423 | 17.42630 | 39864 ft | 529 kts | 161° |
| 2026-04-27 23:46 | 71.55434 | 17.50356 | 39878 ft | 529 kts | 161° |
| 2026-04-27 23:46 | 71.48488 | 17.57978 | 39870 ft | 527 kts | 161° |
| 2026-04-27 23:47 | 71.41546 | 17.65538 | 39860 ft | 527 kts | 161° |
| 2026-04-27 23:47 | 71.34632 | 17.73012 | 39867 ft | 528 kts | 161° |
| 2026-04-27 23:48 | 71.27681 | 17.80468 | 39871 ft | 528 kts | 161° |
| 2026-04-27 23:48 | 71.20722 | 17.87876 | 39863 ft | 528 kts | 161° |
| 2026-04-27 23:49 | 71.13755 | 17.95237 | 39861 ft | 528 kts | 161° |
| 2026-04-27 23:49 | 71.06789 | 18.02542 | 39866 ft | 528 kts | 161° |
| 2026-04-27 23:50 | 70.99804 | 18.09812 | 39863 ft | 529 kts | 161° |
| 2026-04-27 23:50 | 70.92880 | 18.16964 | 39864 ft | 528 kts | 161° |
| 2026-04-27 23:51 | 70.85955 | 18.24066 | 39289 ft | 517 kts | 161° |
| 2026-04-27 23:51 | 70.82543 | 18.27546 | 38002 ft | 518 kts | 161° |
| 2026-04-27 23:51 | 70.79105 | 18.31039 | 36429 ft | 525 kts | 161° |
| 2026-04-27 23:52 | 70.75614 | 18.34573 | 34931 ft | 532 kts | 160° |
| 2026-04-27 23:52 | 70.72079 | 18.38139 | 33400 ft | 536 kts | 160° |
| 2026-04-27 23:52 | 70.68535 | 18.41702 | 31892 ft | 538 kts | 160° |
| 2026-04-27 23:52 | 70.65029 | 18.45213 | 30603 ft | 537 kts | 160° |
| 2026-04-27 23:53 | 70.61488 | 18.48744 | 29226 ft | 532 kts | 160° |
| 2026-04-27 23:53 | 70.58003 | 18.52202 | 28191 ft | 522 kts | 160° |
| 2026-04-27 23:53 | 70.54582 | 18.55586 | 27171 ft | 512 kts | 160° |
| 2026-04-27 23:53 | 70.51231 | 18.58894 | 26173 ft | 503 kts | 160° |
| 2026-04-27 23:54 | 70.47927 | 18.62139 | 25182 ft | 496 kts | 159° |
| 2026-04-27 23:54 | 70.44675 | 18.65321 | 24319 ft | 487 kts | 159° |
| 2026-04-27 23:54 | 70.41474 | 18.68445 | 23283 ft | 479 kts | 159° |
| 2026-04-27 23:54 | 70.38330 | 18.71505 | 22223 ft | 470 kts | 159° |
| 2026-04-27 23:55 | 70.35255 | 18.74488 | 21251 ft | 460 kts | 159° |
| 2026-04-27 23:55 | 70.32238 | 18.77407 | 20269 ft | 451 kts | 159° |
| 2026-04-27 23:55 | 70.29319 | 18.80222 | 19357 ft | 443 kts | 159° |
| 2026-04-27 23:55 | 70.26430 | 18.82998 | 18777 ft | 426 kts | 159° |
| 2026-04-27 23:56 | 70.23674 | 18.85636 | 18311 ft | 407 kts | 159° |
| 2026-04-27 23:56 | 70.21043 | 18.88149 | 17907 ft | 388 kts | 159° |
| 2026-04-27 23:56 | 70.18497 | 18.90580 | 17528 ft | 381 kts | 160° |
| 2026-04-27 23:56 | 70.15990 | 18.92971 | 17150 ft | 377 kts | 160° |
| 2026-04-27 23:57 | 70.13512 | 18.95327 | 16777 ft | 373 kts | 160° |
| 2026-04-27 23:57 | 70.11051 | 18.97596 | 16421 ft | 369 kts | 163° |
| 2026-04-27 23:57 | 70.08518 | 18.98561 | 16055 ft | 365 kts | 183° |
| 2026-04-27 23:57 | 70.06072 | 18.97013 | 15709 ft | 357 kts | 205° |
| 2026-04-27 23:58 | 70.03832 | 18.94019 | 15342 ft | 352 kts | 209° |
| 2026-04-27 23:58 | 70.01648 | 18.90844 | 15007 ft | 351 kts | 210° |
| 2026-04-27 23:58 | 69.99471 | 18.87695 | 14647 ft | 347 kts | 209° |
| 2026-04-27 23:58 | 69.97320 | 18.84616 | 14298 ft | 342 kts | 209° |
| 2026-04-27 23:59 | 69.95196 | 18.81597 | 13926 ft | 337 kts | 208° |
| 2026-04-27 23:59 | 69.93099 | 18.78631 | 13586 ft | 333 kts | 208° |
| 2026-04-27 23:59 | 69.91053 | 18.75747 | 13250 ft | 330 kts | 208° |
| 2026-04-27 23:59 | 69.88988 | 18.72844 | 12906 ft | 328 kts | 208° |
| 2026-04-28 00:00 | 69.86934 | 18.69964 | 12568 ft | 327 kts | 208° |
| 2026-04-28 00:00 | 69.84883 | 18.67096 | 12245 ft | 326 kts | 208° |
| 2026-04-28 00:00 | 69.82854 | 18.64267 | 11915 ft | 322 kts | 208° |
| 2026-04-28 00:00 | 69.80837 | 18.61460 | 11587 ft | 319 kts | 208° |
| 2026-04-28 00:01 | 69.78842 | 18.58689 | 11316 ft | 314 kts | 208° |
| 2026-04-28 00:01 | 69.76906 | 18.56010 | 11178 ft | 302 kts | 208° |
| 2026-04-28 00:01 | 69.75046 | 18.53442 | 11037 ft | 291 kts | 208° |
| 2026-04-28 00:01 | 69.73249 | 18.50965 | 10878 ft | 281 kts | 208° |
| 2026-04-28 00:02 | 69.71502 | 18.48558 | 10613 ft | 276 kts | 208° |
| 2026-04-28 00:02 | 69.69764 | 18.46454 | 10372 ft | 276 kts | 199° |
| 2026-04-28 00:02 | 69.67830 | 18.45723 | 10227 ft | 289 kts | 182° |
| 2026-04-28 00:02 | 69.65794 | 18.45779 | 10134 ft | 293 kts | 180° |
| 2026-04-28 00:03 | 69.63763 | 18.45925 | 9666 ft | 293 kts | 180° |
| 2026-04-28 00:03 | 69.61704 | 18.46064 | 9287 ft | 291 kts | 180° |
| 2026-04-28 00:03 | 69.59705 | 18.46186 | 9023 ft | 291 kts | 180° |
| 2026-04-28 00:03 | 69.57693 | 18.46303 | 8740 ft | 289 kts | 180° |
| 2026-04-28 00:04 | 69.55685 | 18.46408 | 8464 ft | 287 kts | 180° |
| 2026-04-28 00:04 | 69.51704 | 18.46612 | 7934 ft | 284 kts | 180° |
| 2026-04-28 00:04 | 69.49769 | 18.46713 | 7815 ft | 273 kts | 180° |
| 2026-04-28 00:05 | 69.47908 | 18.46809 | 7665 ft | 262 kts | 180° |
| 2026-04-28 00:05 | 69.46129 | 18.47245 | 7508 ft | 252 kts | 166° |
| 2026-04-28 00:05 | 69.44615 | 18.49559 | 7327 ft | 247 kts | 133° |
| 2026-04-28 00:05 | 69.43761 | 18.53610 | 7069 ft | 241 kts | 105° |
| 2026-04-28 00:06 | 69.43343 | 18.58248 | 6652 ft | 243 kts | 99° |
| 2026-04-28 00:06 | 69.43001 | 18.62954 | 6324 ft | 242 kts | 99° |
| 2026-04-28 00:06 | 69.42698 | 18.67556 | 6143 ft | 231 kts | 92° |
| 2026-04-28 00:06 | 69.42880 | 18.71859 | 5989 ft | 211 kts | 63° |
| 2026-04-28 00:07 | 69.43725 | 18.74979 | 5877 ft | 195 kts | 33° |
| 2026-04-28 00:07 | 69.44939 | 18.76552 | 5768 ft | 191 kts | 13° |
| 2026-04-28 00:07 | 69.46201 | 18.77415 | 5621 ft | 180 kts | 10° |
| 2026-04-28 00:07 | 69.47394 | 18.78154 | 5429 ft | 173 kts | 10° |
| 2026-04-28 00:08 | 69.48570 | 18.78880 | 5213 ft | 171 kts | 11° |
| 2026-04-28 00:08 | 69.49671 | 18.79574 | 5023 ft | 156 kts | 11° |
| 2026-04-28 00:08 | 69.50725 | 18.80231 | 4969 ft | 155 kts | 9° |
| 2026-04-28 00:08 | 69.51789 | 18.80859 | 4672 ft | 159 kts | 11° |
| 2026-04-28 00:09 | 69.52921 | 18.81620 | 4072 ft | 177 kts | 12° |
| 2026-04-28 00:09 | 69.54156 | 18.82449 | 3624 ft | 184 kts | 11° |
| 2026-04-28 00:09 | 69.55387 | 18.83264 | 3278 ft | 180 kts | 11° |
| 2026-04-28 00:09 | 69.56603 | 18.84063 | 2851 ft | 174 kts | 11° |
| 2026-04-28 00:10 | 69.57738 | 18.84816 | 2579 ft | 162 kts | 11° |
| 2026-04-28 00:10 | 69.58806 | 18.85532 | 2285 ft | 153 kts | 11° |
| 2026-04-28 00:10 | 69.59820 | 18.86210 | 2012 ft | 147 kts | 9° |
| 2026-04-28 00:10 | 69.60789 | 18.86856 | 1773 ft | 142 kts | 11° |
| 2026-04-28 00:11 | 69.61756 | 18.87501 | 1506 ft | 143 kts | 10° |
| 2026-04-28 00:11 | 69.62734 | 18.88153 | 1281 ft | 144 kts | 11° |
| 2026-04-28 00:11 | 69.63712 | 18.88807 | 1021 ft | 144 kts | 12° |
| 2026-04-28 00:11 | 69.64684 | 18.89457 | 754 ft | 144 kts | 12° |
| 2026-04-28 00:12 | 69.65660 | 18.90096 | 498 ft | 145 kts | 12° |
| 2026-04-28 00:12 | 69.66643 | 18.90753 | 229 ft | 145 kts | 14° |
| 2026-04-28 00:12 | 69.67631 | 18.91421 | 42 ft | 142 kts | 13° |
| 2026-04-28 00:12 | 69.68364 | 18.91908 | 40 ft | 66 kts | 13° |
| 2026-04-28 00:13 | 69.68671 | 18.92118 | 37 ft | 21 kts | 13° |
| 2026-04-28 00:13 | 69.68738 | 18.92139 | 35 ft | 1 kts | 339° |
| 2026-04-28 00:13 | 69.68744 | 18.92125 | 34 ft | 2 kts | 323° |
| 2026-04-28 00:13 | 69.68768 | 18.91959 | 36 ft | 18 kts | 285° |
| 2026-04-28 00:14 | 69.68746 | 18.91707 | 37 ft | 10 kts | 209° |
| 2026-04-28 00:14 | 69.68576 | 18.91596 | 38 ft | 64 kts | 192° |
| 2026-04-28 00:14 | 69.68176 | 18.91384 | 41 ft | 43 kts | 204° |
| 2026-04-28 00:14 | 69.68092 | 18.91083 | 41 ft | 0 kts | 241° |